sensor_id;sensor_type;location;lat;lon;timestamp;P1;durP1;ratioP1;P2;durP2;ratioP2
13408;SDS011;6775;49.574;11.170;2023-04-24T00:00:42;2.03;;;1.40;;
13408;SDS011;6775;49.574;11.170;2023-04-24T00:03:11;1.10;;;1.10;;
13408;SDS011;6775;49.574;11.170;2023-04-24T00:05:39;5.27;;;1.90;;
13408;SDS011;6775;49.574;11.170;2023-04-24T00:08:07;4.03;;;1.50;;
13408;SDS011;6775;49.574;11.170;2023-04-24T00:10:35;2.03;;;1.67;;
13408;SDS011;6775;49.574;11.170;2023-04-24T00:13:03;2.27;;;1.50;;
13408;SDS011;6775;49.574;11.170;2023-04-24T00:15:31;1.73;;;1.60;;
13408;SDS011;6775;49.574;11.170;2023-04-24T00:18:00;2.17;;;1.73;;
13408;SDS011;6775;49.574;11.170;2023-04-24T00:20:28;2.27;;;1.67;;
13408;SDS011;6775;49.574;11.170;2023-04-24T00:22:58;3.07;;;1.80;;
13408;SDS011;6775;49.574;11.170;2023-04-24T00:25:26;1.90;;;1.67;;
13408;SDS011;6775;49.574;11.170;2023-04-24T00:27:54;2.60;;;1.40;;
13408;SDS011;6775;49.574;11.170;2023-04-24T00:30:21;1.50;;;1.40;;
13408;SDS011;6775;49.574;11.170;2023-04-24T00:32:50;1.50;;;1.40;;
13408;SDS011;6775;49.574;11.170;2023-04-24T00:35:19;2.23;;;1.40;;
13408;SDS011;6775;49.574;11.170;2023-04-24T00:37:47;2.20;;;1.33;;
13408;SDS011;6775;49.574;11.170;2023-04-24T00:40:15;3.57;;;1.57;;
13408;SDS011;6775;49.574;11.170;2023-04-24T00:42:43;2.03;;;1.40;;
13408;SDS011;6775;49.574;11.170;2023-04-24T00:45:11;1.33;;;1.20;;
13408;SDS011;6775;49.574;11.170;2023-04-24T00:47:39;3.73;;;1.10;;
13408;SDS011;6775;49.574;11.170;2023-04-24T00:50:09;1.73;;;1.53;;
13408;SDS011;6775;49.574;11.170;2023-04-24T00:52:38;2.00;;;1.53;;
13408;SDS011;6775;49.574;11.170;2023-04-24T00:55:07;2.93;;;1.60;;
13408;SDS011;6775;49.574;11.170;2023-04-24T00:57:36;1.40;;;1.30;;
13408;SDS011;6775;49.574;11.170;2023-04-24T01:00:05;1.40;;;1.30;;
13408;SDS011;6775;49.574;11.170;2023-04-24T01:02:37;2.40;;;1.20;;
13408;SDS011;6775;49.574;11.170;2023-04-24T01:05:10;2.80;;;1.20;;
13408;SDS011;6775;49.574;11.170;2023-04-24T01:07:40;1.43;;;1.30;;
13408;SDS011;6775;49.574;11.170;2023-04-24T01:10:11;1.83;;;1.20;;
13408;SDS011;6775;49.574;11.170;2023-04-24T01:12:41;1.73;;;1.20;;
13408;SDS011;6775;49.574;11.170;2023-04-24T01:15:09;1.30;;;1.20;;
13408;SDS011;6775;49.574;11.170;2023-04-24T01:17:37;2.43;;;1.60;;
13408;SDS011;6775;49.574;11.170;2023-04-24T01:20:06;1.27;;;1.07;;
13408;SDS011;6775;49.574;11.170;2023-04-24T01:22:36;2.30;;;1.57;;
13408;SDS011;6775;49.574;11.170;2023-04-24T01:25:04;2.67;;;1.57;;
13408;SDS011;6775;49.574;11.170;2023-04-24T01:27:32;1.90;;;1.40;;
13408;SDS011;6775;49.574;11.170;2023-04-24T01:30:00;2.23;;;1.30;;
13408;SDS011;6775;49.574;11.170;2023-04-24T01:32:28;1.87;;;1.20;;
13408;SDS011;6775;49.574;11.170;2023-04-24T01:34:56;1.50;;;1.40;;
13408;SDS011;6775;49.574;11.170;2023-04-24T01:37:24;1.40;;;1.30;;
13408;SDS011;6775;49.574;11.170;2023-04-24T01:39:54;2.37;;;1.43;;
13408;SDS011;6775;49.574;11.170;2023-04-24T01:42:22;2.30;;;1.50;;
13408;SDS011;6775;49.574;11.170;2023-04-24T01:44:50;1.20;;;1.10;;
13408;SDS011;6775;49.574;11.170;2023-04-24T01:47:18;2.83;;;1.30;;
13408;SDS011;6775;49.574;11.170;2023-04-24T01:49:46;1.67;;;1.40;;
13408;SDS011;6775;49.574;11.170;2023-04-24T01:52:15;2.43;;;1.30;;
13408;SDS011;6775;49.574;11.170;2023-04-24T01:54:44;1.97;;;1.43;;
13408;SDS011;6775;49.574;11.170;2023-04-24T01:57:14;1.57;;;1.40;;
13408;SDS011;6775;49.574;11.170;2023-04-24T01:59:42;1.53;;;1.43;;
13408;SDS011;6775;49.574;11.170;2023-04-24T02:02:11;2.87;;;1.60;;
13408;SDS011;6775;49.574;11.170;2023-04-24T02:04:39;1.87;;;1.40;;
13408;SDS011;6775;49.574;11.170;2023-04-24T02:07:07;1.30;;;1.20;;
13408;SDS011;6775;49.574;11.170;2023-04-24T02:09:35;1.67;;;1.10;;
13408;SDS011;6775;49.574;11.170;2023-04-24T02:12:03;1.67;;;1.17;;
13408;SDS011;6775;49.574;11.170;2023-04-24T02:14:32;2.90;;;1.50;;
13408;SDS011;6775;49.574;11.170;2023-04-24T02:17:00;1.40;;;1.30;;
13408;SDS011;6775;49.574;11.170;2023-04-24T02:19:27;1.50;;;1.40;;
13408;SDS011;6775;49.574;11.170;2023-04-24T02:21:55;1.07;;;0.97;;
13408;SDS011;6775;49.574;11.170;2023-04-24T02:24:23;1.20;;;1.10;;
13408;SDS011;6775;49.574;11.170;2023-04-24T02:26:51;2.00;;;1.17;;
13408;SDS011;6775;49.574;11.170;2023-04-24T02:29:19;1.53;;;1.20;;
13408;SDS011;6775;49.574;11.170;2023-04-24T02:31:48;1.50;;;1.07;;
13408;SDS011;6775;49.574;11.170;2023-04-24T02:34:16;2.10;;;1.20;;
13408;SDS011;6775;49.574;11.170;2023-04-24T02:36:43;1.93;;;1.03;;
13408;SDS011;6775;49.574;11.170;2023-04-24T02:39:11;1.20;;;0.90;;
13408;SDS011;6775;49.574;11.170;2023-04-24T02:41:40;1.20;;;1.10;;
13408;SDS011;6775;49.574;11.170;2023-04-24T02:44:08;1.73;;;1.10;;
13408;SDS011;6775;49.574;11.170;2023-04-24T02:46:36;1.73;;;1.10;;
13408;SDS011;6775;49.574;11.170;2023-04-24T02:49:05;1.13;;;0.90;;
13408;SDS011;6775;49.574;11.170;2023-04-24T02:51:33;1.43;;;1.20;;
13408;SDS011;6775;49.574;11.170;2023-04-24T02:54:00;1.37;;;1.00;;
13408;SDS011;6775;49.574;11.170;2023-04-24T02:56:28;2.03;;;1.10;;
13408;SDS011;6775;49.574;11.170;2023-04-24T02:58:56;1.00;;;0.90;;
13408;SDS011;6775;49.574;11.170;2023-04-24T03:01:24;1.30;;;1.17;;
13408;SDS011;6775;49.574;11.170;2023-04-24T03:03:52;1.33;;;1.23;;
13408;SDS011;6775;49.574;11.170;2023-04-24T03:06:21;2.00;;;0.97;;
13408;SDS011;6775;49.574;11.170;2023-04-24T03:08:49;1.30;;;1.20;;
13408;SDS011;6775;49.574;11.170;2023-04-24T03:11:17;1.10;;;1.00;;
13408;SDS011;6775;49.574;11.170;2023-04-24T03:13:44;1.03;;;1.00;;
13408;SDS011;6775;49.574;11.170;2023-04-24T03:16:12;0.90;;;0.90;;
13408;SDS011;6775;49.574;11.170;2023-04-24T03:18:40;0.90;;;0.90;;
13408;SDS011;6775;49.574;11.170;2023-04-24T03:21:08;1.20;;;1.10;;
13408;SDS011;6775;49.574;11.170;2023-04-24T03:23:37;1.20;;;1.10;;
13408;SDS011;6775;49.574;11.170;2023-04-24T03:26:05;1.17;;;1.03;;
13408;SDS011;6775;49.574;11.170;2023-04-24T03:28:33;1.30;;;1.20;;
13408;SDS011;6775;49.574;11.170;2023-04-24T03:31:01;1.47;;;1.10;;
13408;SDS011;6775;49.574;11.170;2023-04-24T03:33:30;1.23;;;1.10;;
13408;SDS011;6775;49.574;11.170;2023-04-24T03:35:57;1.33;;;1.20;;
13408;SDS011;6775;49.574;11.170;2023-04-24T03:38:25;1.43;;;1.20;;
13408;SDS011;6775;49.574;11.170;2023-04-24T03:40:54;2.10;;;1.20;;
13408;SDS011;6775;49.574;11.170;2023-04-24T03:43:22;1.30;;;1.20;;
13408;SDS011;6775;49.574;11.170;2023-04-24T03:45:50;1.73;;;1.00;;
13408;SDS011;6775;49.574;11.170;2023-04-24T03:48:18;1.30;;;1.10;;
13408;SDS011;6775;49.574;11.170;2023-04-24T03:50:46;1.03;;;0.93;;
13408;SDS011;6775;49.574;11.170;2023-04-24T03:53:14;1.10;;;1.00;;
13408;SDS011;6775;49.574;11.170;2023-04-24T03:55:41;1.00;;;1.00;;
13408;SDS011;6775;49.574;11.170;2023-04-24T03:58:10;1.20;;;0.87;;
13408;SDS011;6775;49.574;11.170;2023-04-24T04:00:39;1.40;;;1.20;;
13408;SDS011;6775;49.574;11.170;2023-04-24T04:03:07;1.50;;;1.20;;
13408;SDS011;6775;49.574;11.170;2023-04-24T04:05:35;1.77;;;1.13;;
13408;SDS011;6775;49.574;11.170;2023-04-24T04:08:03;1.50;;;1.40;;
13408;SDS011;6775;49.574;11.170;2023-04-24T04:10:31;1.73;;;1.10;;
13408;SDS011;6775;49.574;11.170;2023-04-24T04:12:59;1.60;;;1.13;;
13408;SDS011;6775;49.574;11.170;2023-04-24T04:15:28;1.30;;;1.20;;
13408;SDS011;6775;49.574;11.170;2023-04-24T04:17:56;1.97;;;1.10;;
13408;SDS011;6775;49.574;11.170;2023-04-24T04:20:23;1.63;;;1.20;;
13408;SDS011;6775;49.574;11.170;2023-04-24T04:22:51;2.07;;;1.20;;
13408;SDS011;6775;49.574;11.170;2023-04-24T04:25:19;1.90;;;1.60;;
13408;SDS011;6775;49.574;11.170;2023-04-24T04:27:47;1.67;;;1.57;;
13408;SDS011;6775;49.574;11.170;2023-04-24T04:30:15;1.43;;;1.30;;
13408;SDS011;6775;49.574;11.170;2023-04-24T04:32:44;1.30;;;1.20;;
13408;SDS011;6775;49.574;11.170;2023-04-24T04:35:12;1.53;;;1.30;;
13408;SDS011;6775;49.574;11.170;2023-04-24T04:37:40;1.17;;;1.07;;
13408;SDS011;6775;49.574;11.170;2023-04-24T04:40:08;2.30;;;1.50;;
13408;SDS011;6775;49.574;11.170;2023-04-24T04:42:38;2.23;;;1.40;;
13408;SDS011;6775;49.574;11.170;2023-04-24T04:45:07;3.43;;;1.43;;
13408;SDS011;6775;49.574;11.170;2023-04-24T04:47:37;2.63;;;1.60;;
13408;SDS011;6775;49.574;11.170;2023-04-24T04:50:07;1.00;;;1.00;;
13408;SDS011;6775;49.574;11.170;2023-04-24T04:52:36;1.43;;;1.33;;
13408;SDS011;6775;49.574;11.170;2023-04-24T04:55:04;1.90;;;1.40;;
13408;SDS011;6775;49.574;11.170;2023-04-24T04:57:33;2.37;;;1.53;;
13408;SDS011;6775;49.574;11.170;2023-04-24T05:00:01;1.73;;;1.20;;
13408;SDS011;6775;49.574;11.170;2023-04-24T05:02:30;1.43;;;1.33;;
13408;SDS011;6775;49.574;11.170;2023-04-24T05:04:58;1.40;;;1.30;;
13408;SDS011;6775;49.574;11.170;2023-04-24T05:07:28;1.60;;;1.07;;
13408;SDS011;6775;49.574;11.170;2023-04-24T05:09:56;2.07;;;1.23;;
13408;SDS011;6775;49.574;11.170;2023-04-24T05:12:23;1.83;;;1.10;;
13408;SDS011;6775;49.574;11.170;2023-04-24T05:14:51;4.40;;;1.57;;
13408;SDS011;6775;49.574;11.170;2023-04-24T05:17:19;1.70;;;1.37;;
13408;SDS011;6775;49.574;11.170;2023-04-24T05:19:47;1.30;;;1.20;;
13408;SDS011;6775;49.574;11.170;2023-04-24T05:22:15;2.70;;;1.40;;
13408;SDS011;6775;49.574;11.170;2023-04-24T05:24:46;1.40;;;1.30;;
13408;SDS011;6775;49.574;11.170;2023-04-24T05:27:14;3.20;;;1.20;;
13408;SDS011;6775;49.574;11.170;2023-04-24T05:29:41;1.33;;;1.23;;
13408;SDS011;6775;49.574;11.170;2023-04-24T05:32:10;1.43;;;1.33;;
13408;SDS011;6775;49.574;11.170;2023-04-24T05:34:37;1.40;;;1.30;;
13408;SDS011;6775;49.574;11.170;2023-04-24T05:37:05;3.70;;;1.33;;
13408;SDS011;6775;49.574;11.170;2023-04-24T05:39:35;1.67;;;1.40;;
13408;SDS011;6775;49.574;11.170;2023-04-24T05:42:05;2.00;;;1.47;;
13408;SDS011;6775;49.574;11.170;2023-04-24T05:44:33;2.10;;;1.30;;
13408;SDS011;6775;49.574;11.170;2023-04-24T05:47:00;2.50;;;1.40;;
13408;SDS011;6775;49.574;11.170;2023-04-24T05:49:28;2.60;;;1.50;;
13408;SDS011;6775;49.574;11.170;2023-04-24T05:51:56;2.23;;;1.27;;
13408;SDS011;6775;49.574;11.170;2023-04-24T05:54:24;2.03;;;1.30;;
13408;SDS011;6775;49.574;11.170;2023-04-24T05:56:52;1.70;;;1.60;;
13408;SDS011;6775;49.574;11.170;2023-04-24T05:59:22;1.47;;;1.20;;
13408;SDS011;6775;49.574;11.170;2023-04-24T06:01:50;1.80;;;1.70;;
13408;SDS011;6775;49.574;11.170;2023-04-24T06:04:18;1.80;;;1.67;;
13408;SDS011;6775;49.574;11.170;2023-04-24T06:06:46;3.00;;;1.50;;
13408;SDS011;6775;49.574;11.170;2023-04-24T06:09:16;1.37;;;1.27;;
13408;SDS011;6775;49.574;11.170;2023-04-24T06:11:45;2.00;;;1.37;;
13408;SDS011;6775;49.574;11.170;2023-04-24T06:14:12;2.00;;;1.80;;
13408;SDS011;6775;49.574;11.170;2023-04-24T06:16:42;3.47;;;1.10;;
13408;SDS011;6775;49.574;11.170;2023-04-24T06:19:10;1.27;;;1.10;;
13408;SDS011;6775;49.574;11.170;2023-04-24T06:21:37;1.50;;;1.20;;
13408;SDS011;6775;49.574;11.170;2023-04-24T06:24:05;1.43;;;1.30;;
13408;SDS011;6775;49.574;11.170;2023-04-24T06:26:33;1.47;;;1.20;;
13408;SDS011;6775;49.574;11.170;2023-04-24T06:29:01;1.20;;;1.00;;
13408;SDS011;6775;49.574;11.170;2023-04-24T06:31:29;1.73;;;1.13;;
13408;SDS011;6775;49.574;11.170;2023-04-24T06:34:02;1.23;;;1.10;;
13408;SDS011;6775;49.574;11.170;2023-04-24T06:36:30;1.63;;;1.30;;
13408;SDS011;6775;49.574;11.170;2023-04-24T06:38:58;1.23;;;1.10;;
13408;SDS011;6775;49.574;11.170;2023-04-24T06:41:26;2.10;;;1.00;;
13408;SDS011;6775;49.574;11.170;2023-04-24T06:43:54;1.97;;;1.20;;
13408;SDS011;6775;49.574;11.170;2023-04-24T06:46:21;2.20;;;1.00;;
13408;SDS011;6775;49.574;11.170;2023-04-24T06:48:52;1.83;;;0.90;;
13408;SDS011;6775;49.574;11.170;2023-04-24T06:51:23;1.33;;;1.17;;
13408;SDS011;6775;49.574;11.170;2023-04-24T06:53:52;1.37;;;0.80;;
13408;SDS011;6775;49.574;11.170;2023-04-24T06:56:22;1.10;;;0.90;;
13408;SDS011;6775;49.574;11.170;2023-04-24T06:58:50;0.90;;;0.90;;
13408;SDS011;6775;49.574;11.170;2023-04-24T07:01:18;0.90;;;0.90;;
13408;SDS011;6775;49.574;11.170;2023-04-24T07:03:46;0.63;;;0.63;;
13408;SDS011;6775;49.574;11.170;2023-04-24T07:06:14;2.40;;;1.10;;
13408;SDS011;6775;49.574;11.170;2023-04-24T07:08:44;1.33;;;1.00;;
13408;SDS011;6775;49.574;11.170;2023-04-24T07:11:12;1.00;;;1.00;;
13408;SDS011;6775;49.574;11.170;2023-04-24T07:13:40;1.23;;;0.90;;
13408;SDS011;6775;49.574;11.170;2023-04-24T07:16:08;1.00;;;0.90;;
13408;SDS011;6775;49.574;11.170;2023-04-24T07:18:36;3.10;;;0.83;;
13408;SDS011;6775;49.574;11.170;2023-04-24T07:21:05;0.77;;;0.70;;
13408;SDS011;6775;49.574;11.170;2023-04-24T07:23:34;1.80;;;0.90;;
13408;SDS011;6775;49.574;11.170;2023-04-24T07:26:03;0.70;;;0.70;;
13408;SDS011;6775;49.574;11.170;2023-04-24T07:28:31;2.17;;;0.60;;
13408;SDS011;6775;49.574;11.170;2023-04-24T07:30:59;0.80;;;0.80;;
13408;SDS011;6775;49.574;11.170;2023-04-24T07:33:27;1.90;;;0.90;;
13408;SDS011;6775;49.574;11.170;2023-04-24T07:35:54;0.70;;;0.70;;
13408;SDS011;6775;49.574;11.170;2023-04-24T07:38:22;1.17;;;0.60;;
13408;SDS011;6775;49.574;11.170;2023-04-24T07:40:51;0.70;;;0.70;;
13408;SDS011;6775;49.574;11.170;2023-04-24T07:43:21;1.03;;;0.90;;
13408;SDS011;6775;49.574;11.170;2023-04-24T07:45:49;0.80;;;0.70;;
13408;SDS011;6775;49.574;11.170;2023-04-24T07:48:17;0.80;;;0.80;;
13408;SDS011;6775;49.574;11.170;2023-04-24T07:50:47;0.50;;;0.50;;
13408;SDS011;6775;49.574;11.170;2023-04-24T07:53:15;1.47;;;0.70;;
13408;SDS011;6775;49.574;11.170;2023-04-24T07:55:43;1.17;;;0.90;;
13408;SDS011;6775;49.574;11.170;2023-04-24T07:58:11;1.00;;;0.90;;
13408;SDS011;6775;49.574;11.170;2023-04-24T08:00:40;2.33;;;2.03;;
13408;SDS011;6775;49.574;11.170;2023-04-24T08:03:07;2.77;;;2.30;;
13408;SDS011;6775;49.574;11.170;2023-04-24T08:05:36;2.10;;;1.90;;
13408;SDS011;6775;49.574;11.170;2023-04-24T08:08:06;3.07;;;1.50;;
13408;SDS011;6775;49.574;11.170;2023-04-24T08:10:34;1.43;;;1.33;;
13408;SDS011;6775;49.574;11.170;2023-04-24T08:13:01;2.73;;;1.03;;
13408;SDS011;6775;49.574;11.170;2023-04-24T08:15:29;0.87;;;0.80;;
13408;SDS011;6775;49.574;11.170;2023-04-24T08:17:58;0.80;;;0.80;;
13408;SDS011;6775;49.574;11.170;2023-04-24T08:20:27;0.93;;;0.87;;
13408;SDS011;6775;49.574;11.170;2023-04-24T08:22:54;1.57;;;1.00;;
13408;SDS011;6775;49.574;11.170;2023-04-24T08:25:22;1.20;;;0.93;;
13408;SDS011;6775;49.574;11.170;2023-04-24T08:27:50;1.20;;;1.10;;
13408;SDS011;6775;49.574;11.170;2023-04-24T08:30:18;2.43;;;1.37;;
13408;SDS011;6775;49.574;11.170;2023-04-24T08:32:47;1.77;;;1.03;;
13408;SDS011;6775;49.574;11.170;2023-04-24T08:35:16;2.30;;;1.40;;
13408;SDS011;6775;49.574;11.170;2023-04-24T08:37:44;0.80;;;0.80;;
13408;SDS011;6775;49.574;11.170;2023-04-24T08:40:13;0.90;;;0.90;;
13408;SDS011;6775;49.574;11.170;2023-04-24T08:42:41;0.90;;;0.90;;
13408;SDS011;6775;49.574;11.170;2023-04-24T08:45:11;1.67;;;0.90;;
13408;SDS011;6775;49.574;11.170;2023-04-24T08:47:39;1.57;;;1.10;;
13408;SDS011;6775;49.574;11.170;2023-04-24T08:50:08;1.30;;;1.20;;
13408;SDS011;6775;49.574;11.170;2023-04-24T08:52:40;1.47;;;1.10;;
13408;SDS011;6775;49.574;11.170;2023-04-24T08:55:09;1.10;;;1.00;;
13408;SDS011;6775;49.574;11.170;2023-04-24T08:57:37;1.77;;;1.10;;
13408;SDS011;6775;49.574;11.170;2023-04-24T09:00:06;1.53;;;1.27;;
13408;SDS011;6775;49.574;11.170;2023-04-24T09:02:39;1.57;;;1.30;;
13408;SDS011;6775;49.574;11.170;2023-04-24T09:05:09;1.50;;;1.40;;
13408;SDS011;6775;49.574;11.170;2023-04-24T09:07:37;2.77;;;1.80;;
13408;SDS011;6775;49.574;11.170;2023-04-24T09:10:08;1.50;;;1.40;;
13408;SDS011;6775;49.574;11.170;2023-04-24T09:12:37;2.50;;;1.50;;
13408;SDS011;6775;49.574;11.170;2023-04-24T09:15:05;1.93;;;1.53;;
13408;SDS011;6775;49.574;11.170;2023-04-24T09:17:35;2.27;;;1.60;;
13408;SDS011;6775;49.574;11.170;2023-04-24T09:20:04;1.63;;;1.40;;
13408;SDS011;6775;49.574;11.170;2023-04-24T09:22:32;1.70;;;1.50;;
13408;SDS011;6775;49.574;11.170;2023-04-24T09:25:05;2.63;;;1.50;;
13408;SDS011;6775;49.574;11.170;2023-04-24T09:27:35;2.13;;;1.47;;
13408;SDS011;6775;49.574;11.170;2023-04-24T09:30:03;2.00;;;1.47;;
13408;SDS011;6775;49.574;11.170;2023-04-24T09:32:31;1.67;;;1.57;;
13408;SDS011;6775;49.574;11.170;2023-04-24T09:35:06;1.70;;;1.60;;
13408;SDS011;6775;49.574;11.170;2023-04-24T09:37:36;2.83;;;1.50;;
13408;SDS011;6775;49.574;11.170;2023-04-24T09:42:53;1.27;;;1.17;;
13408;SDS011;6775;49.574;11.170;2023-04-24T09:45:22;1.60;;;1.20;;
13408;SDS011;6775;49.574;11.170;2023-04-24T09:47:55;1.90;;;1.40;;
13408;SDS011;6775;49.574;11.170;2023-04-24T09:50:23;1.53;;;1.30;;
13408;SDS011;6775;49.574;11.170;2023-04-24T09:52:56;1.37;;;1.27;;
13408;SDS011;6775;49.574;11.170;2023-04-24T09:55:26;2.07;;;1.30;;
13408;SDS011;6775;49.574;11.170;2023-04-24T09:57:55;1.70;;;1.40;;
13408;SDS011;6775;49.574;11.170;2023-04-24T10:00:24;1.87;;;1.70;;
13408;SDS011;6775;49.574;11.170;2023-04-24T10:02:57;2.43;;;1.67;;
13408;SDS011;6775;49.574;11.170;2023-04-24T10:05:29;1.53;;;1.43;;
13408;SDS011;6775;49.574;11.170;2023-04-24T10:08:00;2.17;;;1.30;;
13408;SDS011;6775;49.574;11.170;2023-04-24T10:10:31;4.50;;;1.37;;
13408;SDS011;6775;49.574;11.170;2023-04-24T10:13:00;2.37;;;1.20;;
13408;SDS011;6775;49.574;11.170;2023-04-24T10:15:29;1.40;;;1.20;;
13408;SDS011;6775;49.574;11.170;2023-04-24T10:17:58;1.47;;;1.23;;
13408;SDS011;6775;49.574;11.170;2023-04-24T10:20:27;1.13;;;1.03;;
13408;SDS011;6775;49.574;11.170;2023-04-24T10:22:56;1.87;;;1.00;;
13408;SDS011;6775;49.574;11.170;2023-04-24T10:25:26;1.17;;;1.10;;
13408;SDS011;6775;49.574;11.170;2023-04-24T10:27:57;1.53;;;1.10;;
13408;SDS011;6775;49.574;11.170;2023-04-24T10:30:26;1.43;;;0.90;;
13408;SDS011;6775;49.574;11.170;2023-04-24T10:32:55;0.93;;;0.90;;
13408;SDS011;6775;49.574;11.170;2023-04-24T10:35:23;0.80;;;0.80;;
13408;SDS011;6775;49.574;11.170;2023-04-24T10:37:54;1.40;;;0.97;;
13408;SDS011;6775;49.574;11.170;2023-04-24T10:40:27;0.90;;;0.90;;
13408;SDS011;6775;49.574;11.170;2023-04-24T10:43:01;1.30;;;1.20;;
13408;SDS011;6775;49.574;11.170;2023-04-24T10:45:32;1.40;;;1.10;;
13408;SDS011;6775;49.574;11.170;2023-04-24T10:48:01;1.33;;;0.73;;
13408;SDS011;6775;49.574;11.170;2023-04-24T10:50:41;1.57;;;1.23;;
13408;SDS011;6775;49.574;11.170;2023-04-24T10:53:14;1.53;;;1.00;;
13408;SDS011;6775;49.574;11.170;2023-04-24T10:55:45;0.90;;;0.90;;
13408;SDS011;6775;49.574;11.170;2023-04-24T10:58:16;1.03;;;0.60;;
13408;SDS011;6775;49.574;11.170;2023-04-24T11:00:47;1.10;;;1.00;;
13408;SDS011;6775;49.574;11.170;2023-04-24T11:03:24;1.07;;;0.97;;
13408;SDS011;6775;49.574;11.170;2023-04-24T11:05:55;0.57;;;0.53;;
13408;SDS011;6775;49.574;11.170;2023-04-24T11:08:26;0.50;;;0.50;;
13408;SDS011;6775;49.574;11.170;2023-04-24T11:10:57;0.83;;;0.70;;
13408;SDS011;6775;49.574;11.170;2023-04-24T11:13:27;2.27;;;1.07;;
13408;SDS011;6775;49.574;11.170;2023-04-24T11:16:16;1.20;;;1.10;;
13408;SDS011;6775;49.574;11.170;2023-04-24T11:18:50;0.77;;;0.77;;
13408;SDS011;6775;49.574;11.170;2023-04-24T11:21:20;0.70;;;0.70;;
13408;SDS011;6775;49.574;11.170;2023-04-24T11:23:49;1.20;;;0.60;;
13408;SDS011;6775;49.574;11.170;2023-04-24T11:26:18;1.17;;;0.60;;
13408;SDS011;6775;49.574;11.170;2023-04-24T11:28:50;0.80;;;0.60;;
13408;SDS011;6775;49.574;11.170;2023-04-24T11:31:34;0.60;;;0.60;;
13408;SDS011;6775;49.574;11.170;2023-04-24T11:34:06;1.13;;;0.70;;
13408;SDS011;6775;49.574;11.170;2023-04-24T11:36:35;0.70;;;0.70;;
13408;SDS011;6775;49.574;11.170;2023-04-24T11:39:04;0.80;;;0.77;;
13408;SDS011;6775;49.574;11.170;2023-04-24T11:41:32;0.80;;;0.80;;
13408;SDS011;6775;49.574;11.170;2023-04-24T11:44:02;0.87;;;0.87;;
13408;SDS011;6775;49.574;11.170;2023-04-24T11:46:32;0.67;;;0.67;;
13408;SDS011;6775;49.574;11.170;2023-04-24T11:49:00;1.10;;;0.93;;
13408;SDS011;6775;49.574;11.170;2023-04-24T11:51:28;1.40;;;1.00;;
13408;SDS011;6775;49.574;11.170;2023-04-24T11:54:13;4.73;;;1.20;;
13408;SDS011;6775;49.574;11.170;2023-04-24T11:56:44;2.37;;;1.07;;
13408;SDS011;6775;49.574;11.170;2023-04-24T11:59:14;1.27;;;0.97;;
13408;SDS011;6775;49.574;11.170;2023-04-24T12:01:42;1.10;;;1.00;;
13408;SDS011;6775;49.574;11.170;2023-04-24T12:04:11;1.27;;;1.00;;
13408;SDS011;6775;49.574;11.170;2023-04-24T12:06:40;1.77;;;0.87;;
13408;SDS011;6775;49.574;11.170;2023-04-24T12:09:25;0.80;;;0.80;;
13408;SDS011;6775;49.574;11.170;2023-04-24T12:11:53;0.93;;;0.93;;
13408;SDS011;6775;49.574;11.170;2023-04-24T12:14:24;1.10;;;1.00;;
13408;SDS011;6775;49.574;11.170;2023-04-24T12:16:52;1.30;;;1.00;;
13408;SDS011;6775;49.574;11.170;2023-04-24T12:19:20;1.20;;;1.10;;
13408;SDS011;6775;49.574;11.170;2023-04-24T12:21:59;1.03;;;1.00;;
13408;SDS011;6775;49.574;11.170;2023-04-24T12:24:27;1.17;;;1.00;;
13408;SDS011;6775;49.574;11.170;2023-04-24T12:26:56;1.20;;;1.10;;
13408;SDS011;6775;49.574;11.170;2023-04-24T12:29:25;1.40;;;1.23;;
13408;SDS011;6775;49.574;11.170;2023-04-24T12:31:53;1.87;;;1.27;;
13408;SDS011;6775;49.574;11.170;2023-04-24T12:34:22;1.50;;;1.40;;
13408;SDS011;6775;49.574;11.170;2023-04-24T12:36:51;1.57;;;1.10;;
13408;SDS011;6775;49.574;11.170;2023-04-24T12:39:19;2.57;;;1.40;;
13408;SDS011;6775;49.574;11.170;2023-04-24T12:41:50;1.73;;;1.20;;
13408;SDS011;6775;49.574;11.170;2023-04-24T12:44:29;1.17;;;1.07;;
13408;SDS011;6775;49.574;11.170;2023-04-24T12:47:00;1.40;;;1.30;;
13408;SDS011;6775;49.574;11.170;2023-04-24T12:49:29;0.90;;;0.90;;
13408;SDS011;6775;49.574;11.170;2023-04-24T12:51:57;1.50;;;1.10;;
13408;SDS011;6775;49.574;11.170;2023-04-24T12:54:25;1.60;;;1.20;;
13408;SDS011;6775;49.574;11.170;2023-04-24T12:56:59;1.00;;;0.80;;
13408;SDS011;6775;49.574;11.170;2023-04-24T12:59:26;1.20;;;1.10;;
13408;SDS011;6775;49.574;11.170;2023-04-24T13:01:55;1.27;;;1.10;;
13408;SDS011;6775;49.574;11.170;2023-04-24T13:04:23;1.20;;;1.10;;
13408;SDS011;6775;49.574;11.170;2023-04-24T13:06:51;1.80;;;1.20;;
13408;SDS011;6775;49.574;11.170;2023-04-24T13:09:19;2.13;;;1.10;;
13408;SDS011;6775;49.574;11.170;2023-04-24T13:11:47;2.43;;;1.17;;
13408;SDS011;6775;49.574;11.170;2023-04-24T13:14:16;1.30;;;1.20;;
13408;SDS011;6775;49.574;11.170;2023-04-24T13:16:43;0.90;;;0.90;;
13408;SDS011;6775;49.574;11.170;2023-04-24T13:19:13;1.57;;;1.03;;
13408;SDS011;6775;49.574;11.170;2023-04-24T13:21:41;1.10;;;1.00;;
13408;SDS011;6775;49.574;11.170;2023-04-24T13:24:09;0.97;;;0.90;;
13408;SDS011;6775;49.574;11.170;2023-04-24T13:26:37;2.63;;;0.80;;
13408;SDS011;6775;49.574;11.170;2023-04-24T13:29:05;0.80;;;0.80;;
13408;SDS011;6775;49.574;11.170;2023-04-24T13:31:33;0.93;;;0.90;;
13408;SDS011;6775;49.574;11.170;2023-04-24T13:34:01;1.03;;;1.00;;
13408;SDS011;6775;49.574;11.170;2023-04-24T13:36:30;1.10;;;1.00;;
13408;SDS011;6775;49.574;11.170;2023-04-24T13:38:58;0.77;;;0.77;;
13408;SDS011;6775;49.574;11.170;2023-04-24T13:41:26;1.20;;;1.10;;
13408;SDS011;6775;49.574;11.170;2023-04-24T13:43:54;1.30;;;0.90;;
13408;SDS011;6775;49.574;11.170;2023-04-24T13:46:22;0.93;;;0.90;;
13408;SDS011;6775;49.574;11.170;2023-04-24T13:48:50;2.40;;;1.30;;
13408;SDS011;6775;49.574;11.170;2023-04-24T13:51:18;1.23;;;1.13;;
13408;SDS011;6775;49.574;11.170;2023-04-24T13:53:47;1.30;;;1.20;;
13408;SDS011;6775;49.574;11.170;2023-04-24T13:56:15;1.20;;;1.10;;
13408;SDS011;6775;49.574;11.170;2023-04-24T13:58:43;1.20;;;1.10;;
13408;SDS011;6775;49.574;11.170;2023-04-24T14:01:11;1.00;;;1.00;;
13408;SDS011;6775;49.574;11.170;2023-04-24T14:03:39;1.10;;;1.00;;
13408;SDS011;6775;49.574;11.170;2023-04-24T14:06:07;0.80;;;0.80;;
13408;SDS011;6775;49.574;11.170;2023-04-24T14:08:35;1.53;;;1.00;;
13408;SDS011;6775;49.574;11.170;2023-04-24T14:11:04;0.97;;;0.97;;
13408;SDS011;6775;49.574;11.170;2023-04-24T14:13:33;0.80;;;0.80;;
13408;SDS011;6775;49.574;11.170;2023-04-24T14:16:03;1.10;;;1.00;;
13408;SDS011;6775;49.574;11.170;2023-04-24T14:18:32;1.73;;;1.20;;
13408;SDS011;6775;49.574;11.170;2023-04-24T14:21:00;1.13;;;1.00;;
13408;SDS011;6775;49.574;11.170;2023-04-24T14:23:28;2.90;;;1.50;;
13408;SDS011;6775;49.574;11.170;2023-04-24T14:25:56;1.77;;;1.27;;
13408;SDS011;6775;49.574;11.170;2023-04-24T14:28:25;1.13;;;1.13;;
13408;SDS011;6775;49.574;11.170;2023-04-24T14:30:53;2.10;;;1.50;;
13408;SDS011;6775;49.574;11.170;2023-04-24T14:33:21;1.73;;;1.57;;
13408;SDS011;6775;49.574;11.170;2023-04-24T14:35:49;1.60;;;1.50;;
13408;SDS011;6775;49.574;11.170;2023-04-24T14:38:17;3.23;;;2.00;;
13408;SDS011;6775;49.574;11.170;2023-04-24T14:40:45;1.80;;;1.27;;
13408;SDS011;6775;49.574;11.170;2023-04-24T14:43:15;1.60;;;1.37;;
13408;SDS011;6775;49.574;11.170;2023-04-24T14:45:44;1.90;;;1.37;;
13408;SDS011;6775;49.574;11.170;2023-04-24T14:48:12;2.13;;;1.77;;
13408;SDS011;6775;49.574;11.170;2023-04-24T14:50:42;1.50;;;1.40;;
13408;SDS011;6775;49.574;11.170;2023-04-24T14:53:11;1.40;;;1.30;;
13408;SDS011;6775;49.574;11.170;2023-04-24T14:55:39;2.00;;;1.47;;
13408;SDS011;6775;49.574;11.170;2023-04-24T14:58:06;1.17;;;1.07;;
13408;SDS011;6775;49.574;11.170;2023-04-24T15:00:35;1.40;;;1.30;;